TimeCDT,TemperatureF,Dew PointF,Humidity,Sea Level PressureIn,VisibilityMPH,Wind Direction,Wind SpeedMPH,Gust SpeedMPH,PrecipitationIn,Events,Conditions,WindDirDegrees,DateUTC
12:54 AM,66.2,66.2,100,29.73,10.0,SSE,9.2,-,N/A,,Mostly Cloudy,160,2013-03-18 05:54:00
12:58 AM,65.5,65.5,100,29.72,10.0,SSE,9.2,-,N/A,,Mostly Cloudy,160,2013-03-18 05:58:00
1:19 AM,66.2,66.2,100,29.73,10.0,SSE,6.9,-,N/A,,Overcast,150,2013-03-18 06:19:00
1:58 AM,66.6,66.2,99,29.71,10.0,SSE,10.4,-,N/A,,Overcast,160,2013-03-18 06:58:00
2:19 AM,66.2,66.2,100,29.74,10.0,SSE,5.8,-,N/A,,Overcast,160,2013-03-18 07:19:00
2:54 AM,64.4,64.4,100,29.75,10.0,South,4.6,-,N/A,,Scattered Clouds,180,2013-03-18 07:54:00
2:58 AM,64.6,64.6,100,29.73,10.0,South,4.6,-,N/A,,Partly Cloudy,190,2013-03-18 07:58:00
3:40 AM,64.4,64.4,100,29.75,8.0,NW,1.2,-,N/A,,Scattered Clouds,310,2013-03-18 08:40:00
3:47 AM,62.6,62.6,100,29.75,5.0,NW,2.3,-,N/A,,Scattered Clouds,310,2013-03-18 08:47:00
3:54 AM,62.6,62.6,100,29.75,5.0,WNW,2.3,-,N/A,,Mostly Cloudy,300,2013-03-18 08:54:00
3:55 AM,62.6,62.6,100,29.75,5.0,NW,2.3,-,N/A,,Mostly Cloudy,310,2013-03-18 08:55:00
3:58 AM,63.3,63.3,100,29.73,5.0,NNW,2.3,-,N/A,,Mostly Cloudy,330,2013-03-18 08:58:00
4:05 AM,62.6,62.6,100,29.75,3.0,NNW,4.6,-,N/A,,Mostly Cloudy,330,2013-03-18 09:05:00
4:09 AM,62.6,62.6,100,29.76,3.0,NNW,5.8,-,N/A,,Mostly Cloudy,340,2013-03-18 09:09:00
4:16 AM,62.6,62.6,100,29.76,5.0,NNW,4.6,-,N/A,,Mostly Cloudy,330,2013-03-18 09:16:00
4:37 AM,64.4,64.4,100,29.76,7.0,NNW,3.5,-,N/A,,Mostly Cloudy,330,2013-03-18 09:37:00
4:44 AM,64.4,64.4,100,29.76,8.0,NNW,2.3,-,N/A,,Mostly Cloudy,330,2013-03-18 09:44:00
4:58 AM,64.4,64.4,100,29.75,10.0,NNW,3.5,-,N/A,,Overcast,330,2013-03-18 09:58:00
5:05 AM,64.4,64.4,100,29.76,9.0,NNW,2.3,-,N/A,,Mostly Cloudy,330,2013-03-18 10:05:00
5:12 AM,64.4,64.4,100,29.77,10.0,NNW,1.2,-,N/A,,Overcast,340,2013-03-18 10:12:00
5:47 AM,66.2,66.2,100,29.78,10.0,SSW,3.5,-,N/A,,Mostly Cloudy,200,2013-03-18 10:47:00
5:58 AM,65.8,65.8,100,29.76,10.0,SSW,4.6,-,N/A,,Mostly Cloudy,200,2013-03-18 10:58:00
6:40 AM,66.2,66.2,100,29.78,5.0,SW,2.3,-,N/A,,Mostly Cloudy,230,2013-03-18 11:40:00
6:58 AM,65.1,64.9,99,29.77,5.0,SSW,4.6,-,N/A,,Mostly Cloudy,200,2013-03-18 11:58:00
7:40 AM,64.4,64.4,100,29.81,4.0,NW,3.5,-,N/A,,Scattered Clouds,310,2013-03-18 12:40:00
7:47 AM,62.6,62.6,100,29.81,1.8,WNW,2.3,-,N/A,,Clear,290,2013-03-18 12:47:00
7:58 AM,63.0,63.0,100,29.80,2.5,NW,1.2,-,N/A,,Scattered Clouds,310,2013-03-18 12:58:00
8:26 AM,62.6,62.6,100,29.80,4.0,WSW,2.3,-,N/A,,Mostly Cloudy,240,2013-03-18 13:26:00
8:33 AM,62.6,62.6,100,29.81,3.0,SSW,4.6,-,N/A,,Mostly Cloudy,200,2013-03-18 13:33:00
8:40 AM,64.4,64.4,100,29.80,4.0,SSW,4.6,-,N/A,,Mostly Cloudy,210,2013-03-18 13:40:00
8:58 AM,66.0,66.0,100,29.80,9.0,SW,5.8,-,N/A,,Mostly Cloudy,220,2013-03-18 13:58:00
9:58 AM,66.9,66.6,99,29.82,5.0,SW,3.5,-,N/A,,Overcast,230,2013-03-18 14:58:00
10:33 AM,69.8,68.0,94,29.84,5.0,WSW,5.8,-,N/A,,Mostly Cloudy,240,2013-03-18 15:33:00
10:58 AM,71.8,67.3,86,29.82,6.0,Variable,5.8,-,N/A,,Haze,0,2013-03-18 15:58:00
11:58 AM,78.1,66.0,66,29.79,10.0,WSW,5.8,-,N/A,,Clear,240,2013-03-18 16:58:00
12:58 PM,85.5,57.9,39,29.78,10.0,Variable,4.6,-,N/A,,Clear,0,2013-03-18 17:58:00
1:58 PM,90.3,52.5,27,29.76,10.0,NW,5.8,-,N/A,,Clear,320,2013-03-18 18:58:00
2:58 PM,94.1,32.9,12,29.74,10.0,WNW,12.7,17.3,N/A,,Clear,300,2013-03-18 19:58:00
3:58 PM,93.9,27.5,9,29.72,10.0,North,10.4,-,N/A,,Clear,360,2013-03-18 20:58:00
4:58 PM,93.2,34.9,13,29.73,10.0,North,15.0,19.6,N/A,,Clear,350,2013-03-18 21:58:00
5:58 PM,90.0,33.4,13,29.75,10.0,North,18.4,25.3,N/A,,Clear,350,2013-03-18 22:58:00
6:58 PM,84.6,38.3,19,29.79,10.0,North,19.6,21.9,N/A,,Clear,360,2013-03-18 23:58:00
7:58 PM,81.0,40.3,23,29.83,10.0,NNE,9.2,-,N/A,,Clear,20,2013-03-19 00:58:00
8:36 PM,78.8,42.8,28,29.87,10.0,NNE,11.5,-,N/A,,Light Drizzle,30,2013-03-19 01:36:00
8:49 PM,77.0,42.8,29,29.87,10.0,NNE,11.5,-,N/A,,Clear,30,2013-03-19 01:49:00
8:58 PM,77.0,42.8,29,29.86,10.0,NNE,12.7,-,0.00,,Clear,20,2013-03-19 01:58:00
9:58 PM,73.0,45.0,37,29.88,10.0,NNE,13.8,-,N/A,,Clear,30,2013-03-19 02:58:00
10:58 PM,68.5,47.5,47,29.91,10.0,NNE,11.5,-,N/A,,Clear,30,2013-03-19 03:58:00
11:58 PM,66.2,47.3,51,29.92,10.0,NNE,13.8,-,N/A,,Clear,30,2013-03-19 04:58:00